Ballingry, United Kingdom
Current Conditions -  °F | °C
As of 7:20 AM on Saturday 20 Dec 2014 (Local Time) from EGPH Reporting Station
Rain Showers Rain Showers  
Wind Chill: 36°   Ceiling: 3400
Heat Index: 43°   Visibility: 6mi
Dew Point: 36°   Wind: 13mph
Humidity: 76%   Direction: 280°W
Pressure: 29.91"   Gusts: NA
Location:  56.16°N, 3.33°W
Report Text: EGPH 200720Z 28011KT 9999 -SHRA FEW024 BKN034 06/02 Q1013
Loading
Personal Weather Stations






























Interactive Weather Map New forecast layout! Learn more

10-Day Weather Forecast

Advertisements
Track Severe Weather on mobile